Hawaiian Chieftain — WDC8751 — position and weather

sailwx.info

Track history (hours):
 
Tides and Currents Weather Stations Pressure Air Temp Water Temp Dewpoint Dewpoint Depression Visibility Wind Speed Wind Dir Waves Ship Positions

Hawaiian Chieftain (United States)

Operated briefly as "Spirt of Larinda". When she sailed from Sausalito, California, callsign was WAA7737.

Ship's website: http://www.historicalseaport.org/HawaiianChieftain.htm

Owner: GRAYS HARBOR HISTORICAL SEAPORT AUTHORITY, ABERDEEN, WA. More information available from US FCC via Universal Licensing System and Coast Guard Vessel Documentation Center.

Last reported at 2019-Sep-07 14:15 UTC. Time now 2019-Dec-15 09:55 UTC.
Position N 48°19' W 124°47'.
Warning: this ship's position is months out of date.

Length 20 m.

Type: Sailing vessel. MMSI: 367092520.

Date/timePositionNaut miles runAvg speedWind from/ knotsBaromVisibWave heightAir tempDewpointWater temp
2019-Sep-07 14:15N 48°19' W 124°47'6 6.0
2019-Sep-07 13:14N 48°24' W 124°42'2 6.7
2019-Sep-07 13:00N 48°24' W 124°40'4 7.1
2019-Sep-07 12:30N 48°23' W 124°35'1 2.3
2019-Sep-07 11:59N 48°23' W 124°36'0 0.1
2019-Sep-07 11:29N 48°23' W 124°36'0 0.0
2019-Sep-07 11:00N 48°23' W 124°36'0 0.0
2019-Sep-07 10:29N 48°23' W 124°36'0 0.0
2019-Sep-07 09:59N 48°23' W 124°36'0 0.0
2019-Sep-07 09:29N 48°23' W 124°36'0 0.0
2019-Sep-07 08:59N 48°23' W 124°36'0 0.0
2019-Sep-07 08:29N 48°23' W 124°36'0 0.0
2019-Sep-07 07:59N 48°23' W 124°36'0 0.0
2019-Sep-07 07:29N 48°23' W 124°36'0 0.0
2019-Sep-07 06:59N 48°23' W 124°36'0 0.0
2019-Sep-07 06:29N 48°23' W 124°36'0 0.0
2019-Sep-07 05:59N 48°23' W 124°36'0 0.0
2019-Sep-07 05:29N 48°23' W 124°36'0 0.0
2019-Sep-07 04:59N 48°23' W 124°36'0 0.0
2019-Sep-07 04:29N 48°23' W 124°36'0 0.0
2019-Sep-07 03:59N 48°23' W 124°36'0 0.0
2019-Sep-07 03:29N 48°23' W 124°36'0 0.0
2019-Sep-07 02:59N 48°23' W 124°36'1 2.8
2019-Sep-07 02:30N 48°23' W 124°34'  
Track history (hours):
 
Tides and Currents Weather Stations Pressure Air Temp Water Temp Dewpoint Dewpoint Depression Visibility Wind Speed Wind Dir Waves Ship Positions

Hawaiian Chieftain (United States)

Operated briefly as "Spirt of Larinda". When she sailed from Sausalito, California, callsign was WAA7737.

Ship's website: http://www.historicalseaport.org/HawaiianChieftain.htm

Owner: GRAYS HARBOR HISTORICAL SEAPORT AUTHORITY, ABERDEEN, WA. More information available from US FCC via Universal Licensing System and Coast Guard Vessel Documentation Center.

Last reported at 2019-Sep-07 14:15 UTC. Time now 2019-Dec-15 09:55 UTC.
Position N 48°19' W 124°47'.
Warning: this ship's position is months out of date.

Length 20 m.

Type: Sailing vessel. MMSI: 367092520.

Date/timePositionNaut miles runAvg speedWind from/ knotsBaromVisibWave heightAir tempDewpointWater temp
2019-Sep-07 14:15N 48°19' W 124°47'6 6.0
2019-Sep-07 13:14N 48°24' W 124°42'2 6.7
2019-Sep-07 13:00N 48°24' W 124°40'4 7.1
2019-Sep-07 12:30N 48°23' W 124°35'1 2.3
2019-Sep-07 11:59N 48°23' W 124°36'0 0.1
2019-Sep-07 11:29N 48°23' W 124°36'0 0.0
2019-Sep-07 11:00N 48°23' W 124°36'0 0.0
2019-Sep-07 10:29N 48°23' W 124°36'0 0.0
2019-Sep-07 09:59N 48°23' W 124°36'0 0.0
2019-Sep-07 09:29N 48°23' W 124°36'0 0.0
2019-Sep-07 08:59N 48°23' W 124°36'0 0.0
2019-Sep-07 08:29N 48°23' W 124°36'0 0.0
2019-Sep-07 07:59N 48°23' W 124°36'0 0.0
2019-Sep-07 07:29N 48°23' W 124°36'0 0.0
2019-Sep-07 06:59N 48°23' W 124°36'0 0.0
2019-Sep-07 06:29N 48°23' W 124°36'0 0.0
2019-Sep-07 05:59N 48°23' W 124°36'0 0.0
2019-Sep-07 05:29N 48°23' W 124°36'0 0.0
2019-Sep-07 04:59N 48°23' W 124°36'0 0.0
2019-Sep-07 04:29N 48°23' W 124°36'0 0.0
2019-Sep-07 03:59N 48°23' W 124°36'0 0.0
2019-Sep-07 03:29N 48°23' W 124°36'0 0.0
2019-Sep-07 02:59N 48°23' W 124°36'1 2.8
2019-Sep-07 02:30N 48°23' W 124°34'  

Dump ship's entire track history